Time;durP1;ratioP1;P1;durP2;ratioP2;P2;SDS_P1;SDS_P2;PMS_P1;PMS_P2;Temp;Humidity;BMP_temperature;BMP_pressure;BME280_temperature;BME280_humidity;BME280_pressure;Samples;Min_cycle;Max_cycle;Signal;HPM_P1;HPM_P2
2024/01/22 00:02:25;;;;;;;5.53;4.10;;;;;;;;;;6178985;23;20024;-85
2024/01/22 00:04:52;;;;;;;5.88;4.03;;;;;;;;;;6152023;23;20107;-85
2024/01/22 00:07:21;;;;;;;9.13;3.65;;;;;;;;;;6177019;23;20024;-85
2024/01/22 00:09:48;;;;;;;6.95;3.75;;;;;;;;;;6151313;23;20020;-86
2024/01/22 00:12:15;;;;;;;7.72;3.83;;;;;;;;;;6152265;23;20720;-85
2024/01/22 00:14:42;;;;;;;7.40;3.60;;;;;;;;;;6174491;23;20012;-86
2024/01/22 00:17:09;;;;;;;6.68;3.75;;;;;;;;;;6176474;23;20078;-85
2024/01/22 00:19:36;;;;;;;5.47;3.75;;;;;;;;;;6150042;23;20039;-85
2024/01/22 00:22:04;;;;;;;5.28;3.72;;;;;;;;;;6153021;23;20024;-86
2024/01/22 00:24:31;;;;;;;7.15;4.15;;;;;;;;;;6152468;23;20024;-86
2024/01/22 00:26:58;;;;;;;5.78;3.25;;;;;;;;;;6149040;23;20013;-85
2024/01/22 00:29:25;;;;;;;4.65;3.42;;;;;;;;;;6153014;23;20020;-86
2024/01/22 00:31:52;;;;;;;5.03;3.80;;;;;;;;;;6150201;23;20441;-85
2024/01/22 00:34:19;;;;;;;8.57;3.60;;;;;;;;;;6152257;23;20043;-85
2024/01/22 00:36:46;;;;;;;5.07;3.80;;;;;;;;;;6150012;23;20394;-86
2024/01/22 00:39:14;;;;;;;6.03;3.50;;;;;;;;;;6151304;23;20422;-85
2024/01/22 00:41:41;;;;;;;6.70;4.10;;;;;;;;;;6150295;23;20075;-86
2024/01/22 00:44:08;;;;;;;7.20;3.65;;;;;;;;;;6152528;23;20059;-85
2024/01/22 00:46:35;;;;;;;5.97;3.13;;;;;;;;;;6175876;23;20017;-86
2024/01/22 00:49:03;;;;;;;5.57;3.60;;;;;;;;;;6176990;23;20020;-86
2024/01/22 00:51:30;;;;;;;7.57;4.20;;;;;;;;;;6152949;23;20089;-85
2024/01/22 00:53:57;;;;;;;4.85;3.38;;;;;;;;;;6151109;23;20426;-85
2024/01/22 00:56:24;;;;;;;7.47;4.05;;;;;;;;;;6152509;23;20020;-85
2024/01/22 00:58:51;;;;;;;6.95;3.78;;;;;;;;;;6149154;23;20017;-85
2024/01/22 01:01:19;;;;;;;5.75;3.55;;;;;;;;;;6150538;23;20147;-85
2024/01/22 01:03:46;;;;;;;5.28;3.53;;;;;;;;;;6148576;23;20013;-85
2024/01/22 01:06:13;;;;;;;8.57;3.83;;;;;;;;;;6155736;23;20028;-85
2024/01/22 01:08:41;;;;;;;7.93;4.00;;;;;;;;;;6176403;23;20496;-85
2024/01/22 01:11:08;;;;;;;4.25;2.83;;;;;;;;;;6178318;23;20027;-85
2024/01/22 01:13:35;;;;;;;6.50;3.80;;;;;;;;;;6175858;23;20062;-86
2024/01/22 01:16:02;;;;;;;6.55;3.15;;;;;;;;;;6154047;23;20365;-85
2024/01/22 01:18:29;;;;;;;5.60;3.38;;;;;;;;;;6153870;23;20028;-85
2024/01/22 01:20:57;;;;;;;5.40;3.38;;;;;;;;;;6150346;23;20100;-85
2024/01/22 01:23:24;;;;;;;5.57;3.03;;;;;;;;;;6153561;23;20017;-85
2024/01/22 01:25:51;;;;;;;5.68;3.58;;;;;;;;;;6150958;23;20103;-85
2024/01/22 01:28:18;;;;;;;4.65;3.65;;;;;;;;;;6152797;23;20067;-85
2024/01/22 01:30:45;;;;;;;4.72;3.30;;;;;;;;;;6152162;23;20055;-86
2024/01/22 01:33:12;;;;;;;5.35;3.20;;;;;;;;;;6152879;23;20347;-86
2024/01/22 01:35:42;;;;;;;4.78;3.38;;;;;;;;;;6151135;23;20016;-86
2024/01/22 01:38:10;;;;;;;5.88;3.53;;;;;;;;;;6154200;23;20043;-86
2024/01/22 01:40:39;;;;;;;5.30;3.38;;;;;;;;;;6153100;23;20016;-86
2024/01/22 01:43:07;;;;;;;5.93;3.33;;;;;;;;;;6153714;23;20592;-86
2024/01/22 01:45:34;;;;;;;4.93;3.00;;;;;;;;;;6153838;23;20044;-86
2024/01/22 01:48:01;;;;;;;7.37;3.80;;;;;;;;;;6154600;23;20337;-86
2024/01/22 01:50:29;;;;;;;5.90;3.53;;;;;;;;;;6153119;23;20021;-86
2024/01/22 01:52:56;;;;;;;8.35;3.30;;;;;;;;;;6150966;23;20563;-85
2024/01/22 01:55:25;;;;;;;5.60;3.50;;;;;;;;;;6153418;23;20012;-86
2024/01/22 01:57:53;;;;;;;5.05;3.28;;;;;;;;;;6200462;23;20918;-86
2024/01/22 02:00:21;;;;;;;4.07;3.15;;;;;;;;;;6154155;23;20536;-86
2024/01/22 02:02:48;;;;;;;3.92;3.53;;;;;;;;;;6175940;23;20536;-86
2024/01/22 02:05:15;;;;;;;7.15;3.45;;;;;;;;;;6151871;23;20023;-86
2024/01/22 02:07:43;;;;;;;5.75;3.92;;;;;;;;;;6175218;23;20020;-86
2024/01/22 02:10:13;;;;;;;3.38;3.00;;;;;;;;;;6154013;23;20059;-86
2024/01/22 02:12:40;;;;;;;6.13;3.55;;;;;;;;;;6150621;23;20020;-86
2024/01/22 02:15:08;;;;;;;4.95;3.53;;;;;;;;;;6154353;23;20013;-87
2024/01/22 02:17:36;;;;;;;4.95;2.97;;;;;;;;;;6152292;23;20012;-87
2024/01/22 02:20:03;;;;;;;4.85;3.17;;;;;;;;;;6177527;23;20020;-87
2024/01/22 02:22:30;;;;;;;6.93;3.65;;;;;;;;;;6153889;23;20021;-86
2024/01/22 02:24:57;;;;;;;4.77;3.47;;;;;;;;;;6151922;23;20453;-86
2024/01/22 02:27:24;;;;;;;6.30;3.40;;;;;;;;;;6153962;23;20029;-86
2024/01/22 02:29:50;;;;;;;7.07;3.05;;;;;;;;;;6151563;23;20016;-86
2024/01/22 02:32:18;;;;;;;8.10;3.63;;;;;;;;;;6151819;23;20016;-86
2024/01/22 02:34:45;;;;;;;5.63;3.33;;;;;;;;;;6149927;23;20059;-86
2024/01/22 02:37:14;;;;;;;5.03;3.47;;;;;;;;;;6152534;23;20009;-86
2024/01/22 02:39:43;;;;;;;5.10;3.65;;;;;;;;;;6150738;23;20071;-86
2024/01/22 02:42:10;;;;;;;5.20;3.40;;;;;;;;;;6153661;23;20017;-86
2024/01/22 02:44:37;;;;;;;5.88;3.47;;;;;;;;;;6151585;23;20326;-86
2024/01/22 02:47:05;;;;;;;5.28;3.42;;;;;;;;;;6152758;23;20074;-86
2024/01/22 02:49:34;;;;;;;5.35;3.55;;;;;;;;;;6153980;23;20496;-86
2024/01/22 02:52:04;;;;;;;6.55;3.58;;;;;;;;;;6180543;23;20025;-86
2024/01/22 02:54:32;;;;;;;6.38;3.47;;;;;;;;;;6153177;23;20095;-86
2024/01/22 02:56:59;;;;;;;6.60;3.40;;;;;;;;;;6175092;23;20020;-86
2024/01/22 02:59:27;;;;;;;5.40;3.30;;;;;;;;;;6152206;23;20028;-85
2024/01/22 03:01:55;;;;;;;6.72;3.20;;;;;;;;;;6175641;23;20070;-85
2024/01/22 03:04:22;;;;;;;3.35;2.97;;;;;;;;;;6151951;23;20054;-86
2024/01/22 03:06:49;;;;;;;4.40;3.20;;;;;;;;;;6175420;23;20438;-86
2024/01/22 03:09:16;;;;;;;4.47;3.30;;;;;;;;;;6176464;23;20191;-86
2024/01/22 03:11:44;;;;;;;4.75;3.72;;;;;;;;;;6151175;23;20079;-86
2024/01/22 03:14:11;;;;;;;4.00;3.08;;;;;;;;;;6152435;23;20020;-86
2024/01/22 03:16:38;;;;;;;4.43;2.78;;;;;;;;;;6151338;23;20465;-86
2024/01/22 03:19:06;;;;;;;5.30;3.00;;;;;;;;;;6201824;23;20020;-87
2024/01/22 03:21:33;;;;;;;4.40;3.47;;;;;;;;;;6152781;23;20345;-86
2024/01/22 03:24:00;;;;;;;3.90;2.88;;;;;;;;;;6176290;23;20287;-85
2024/01/22 03:26:27;;;;;;;3.35;3.05;;;;;;;;;;6152601;23;20687;-85
2024/01/22 03:28:55;;;;;;;4.78;3.20;;;;;;;;;;6149699;23;20572;-85
2024/01/22 03:31:24;;;;;;;2.93;2.50;;;;;;;;;;6154840;23;20017;-86
2024/01/22 03:33:53;;;;;;;7.22;2.90;;;;;;;;;;6151773;23;20719;-86
2024/01/22 03:36:21;;;;;;;4.45;3.05;;;;;;;;;;6154454;23;20384;-86
2024/01/22 03:38:48;;;;;;;3.72;2.97;;;;;;;;;;6151392;23;20027;-86
2024/01/22 03:41:16;;;;;;;4.23;3.17;;;;;;;;;;6152244;23;20112;-86
2024/01/22 03:43:43;;;;;;;4.40;2.88;;;;;;;;;;6149772;23;20746;-86
2024/01/22 03:46:15;;;;;;;6.00;3.58;;;;;;;;;;6153048;23;20024;-86
2024/01/22 03:48:42;;;;;;;3.45;2.65;;;;;;;;;;6149013;23;20020;-86
2024/01/22 03:51:09;;;;;;;4.43;2.97;;;;;;;;;;6152582;23;20096;-86
2024/01/22 03:53:36;;;;;;;3.28;2.97;;;;;;;;;;6151958;23;20108;-86
2024/01/22 03:56:05;;;;;;;5.47;3.45;;;;;;;;;;6203024;23;20023;-86
2024/01/22 03:58:33;;;;;;;;;;;;;;;;;;6152174;23;20043;-85
2024/01/22 04:01:01;;;;;;;3.45;2.78;;;;;;;;;;6176724;23;19912;-85
2024/01/22 04:03:28;;;;;;;4.63;2.83;;;;;;;;;;6151686;23;20024;-86
2024/01/22 04:05:55;;;;;;;4.67;3.27;;;;;;;;;;6149196;23;20084;-85
2024/01/22 04:08:23;;;;;;;3.13;2.72;;;;;;;;;;6152366;23;20080;-86
2024/01/22 04:10:50;;;;;;;6.00;2.80;;;;;;;;;;6149254;23;20031;-86
2024/01/22 04:13:18;;;;;;;5.20;2.80;;;;;;;;;;6151255;23;20074;-86
2024/01/22 04:15:47;;;;;;;4.40;2.78;;;;;;;;;;6150666;23;20012;-86
2024/01/22 04:18:14;;;;;;;4.38;2.78;;;;;;;;;;6152782;23;20017;-86
2024/01/22 04:20:42;;;;;;;4.03;3.00;;;;;;;;;;6149520;23;20016;-86
2024/01/22 04:23:09;;;;;;;3.15;2.47;;;;;;;;;;6151550;23;20102;-87
2024/01/22 04:25:36;;;;;;;4.35;3.00;;;;;;;;;;6148229;23;20052;-86
2024/01/22 04:28:03;;;;;;;5.13;2.75;;;;;;;;;;6176711;23;20025;-86
2024/01/22 04:30:31;;;;;;;5.25;2.70;;;;;;;;;;6153872;23;20016;-86
2024/01/22 04:32:58;;;;;;;3.05;2.50;;;;;;;;;;6150530;23;20024;-87
2024/01/22 04:35:25;;;;;;;2.92;2.25;;;;;;;;;;6177501;23;20025;-87
2024/01/22 04:37:53;;;;;;;4.07;2.50;;;;;;;;;;6151491;23;20020;-87
2024/01/22 04:40:20;;;;;;;2.90;2.60;;;;;;;;;;6179853;23;20397;-86
2024/01/22 04:42:49;;;;;;;2.65;2.45;;;;;;;;;;6151272;23;20712;-86
2024/01/22 04:45:17;;;;;;;5.00;2.78;;;;;;;;;;6154666;23;20547;-86
2024/01/22 04:47:45;;;;;;;2.90;2.63;;;;;;;;;;6151981;23;20017;-87
2024/01/22 04:50:12;;;;;;;3.57;3.00;;;;;;;;;;6153060;23;20026;-86
2024/01/22 04:52:40;;;;;;;2.80;2.60;;;;;;;;;;6151121;23;20457;-87
2024/01/22 04:55:07;;;;;;;3.67;2.33;;;;;;;;;;6155851;23;20456;-86
2024/01/22 04:57:34;;;;;;;5.05;2.40;;;;;;;;;;6155965;23;20123;-85
2024/01/22 05:00:02;;;;;;;3.57;2.70;;;;;;;;;;6156244;23;20025;-85
2024/01/22 05:02:29;;;;;;;2.53;2.33;;;;;;;;;;6179737;23;20020;-86
2024/01/22 05:05:00;;;;;;;2.67;2.30;;;;;;;;;;6153281;23;20016;-85
2024/01/22 05:07:27;;;;;;;3.25;2.50;;;;;;;;;;6154610;23;20059;-86
2024/01/22 05:09:57;;;;;;;2.50;2.25;;;;;;;;;;6152541;23;20455;-86
2024/01/22 05:12:24;;;;;;;2.13;1.98;;;;;;;;;;6154744;23;20350;-86
2024/01/22 05:14:52;;;;;;;3.60;2.50;;;;;;;;;;6152602;23;20413;-86
2024/01/22 05:17:23;;;;;;;3.83;2.35;;;;;;;;;;6156787;23;20016;-85
2024/01/22 05:19:52;;;;;;;2.50;2.10;;;;;;;;;;6201834;23;20323;-86
2024/01/22 05:22:21;;;;;;;3.30;2.28;;;;;;;;;;6155459;23;20100;-85
2024/01/22 05:24:48;;;;;;;2.70;2.50;;;;;;;;;;6153375;23;20074;-86
2024/01/22 05:27:16;;;;;;;2.53;2.08;;;;;;;;;;6154698;23;20024;-88
2024/01/22 05:29:43;;;;;;;2.58;2.10;;;;;;;;;;6151244;23;20021;-89
2024/01/22 05:32:13;;;;;;;2.25;2.05;;;;;;;;;;6155552;23;20024;-86
2024/01/22 05:34:41;;;;;;;2.45;2.25;;;;;;;;;;6177015;23;20017;-86
2024/01/22 05:37:08;;;;;;;2.30;2.10;;;;;;;;;;6154317;23;20095;-86
2024/01/22 05:39:36;;;;;;;3.58;2.40;;;;;;;;;;6153398;23;20019;-87
2024/01/22 05:42:03;;;;;;;2.88;2.45;;;;;;;;;;6154660;23;20028;-86
2024/01/22 05:44:31;;;;;;;2.90;2.15;;;;;;;;;;6152970;23;20024;-86
2024/01/22 05:47:01;;;;;;;2.92;2.05;;;;;;;;;;6207697;23;20031;-86
2024/01/22 05:49:29;;;;;;;2.67;2.07;;;;;;;;;;6153933;23;20338;-86
2024/01/22 05:51:57;;;;;;;2.88;2.10;;;;;;;;;;6177403;23;20100;-86
2024/01/22 05:54:25;;;;;;;2.47;2.00;;;;;;;;;;6203360;23;20035;-86
2024/01/22 05:56:54;;;;;;;2.47;1.90;;;;;;;;;;6177564;23;20052;-86
2024/01/22 05:59:22;;;;;;;1.85;1.70;;;;;;;;;;6155711;23;20017;-86
2024/01/22 06:01:50;;;;;;;2.50;2.05;;;;;;;;;;6177733;23;20020;-86
2024/01/22 06:04:17;;;;;;;2.67;1.80;;;;;;;;;;6180032;23;20020;-86
2024/01/22 06:06:45;;;;;;;2.00;1.70;;;;;;;;;;6154042;23;20024;-86
2024/01/22 06:09:12;;;;;;;2.20;1.70;;;;;;;;;;6154446;23;20066;-85
2024/01/22 06:11:39;;;;;;;2.75;1.40;;;;;;;;;;6153354;23;20025;-86
2024/01/22 06:14:07;;;;;;;1.90;1.80;;;;;;;;;;6153490;23;20024;-86
2024/01/22 06:16:35;;;;;;;1.95;1.75;;;;;;;;;;6204189;23;20066;-86
2024/01/22 06:19:02;;;;;;;1.98;1.67;;;;;;;;;;6154521;23;20013;-86
2024/01/22 06:21:32;;;;;;;4.35;1.70;;;;;;;;;;6154393;23;20016;-86
2024/01/22 06:23:59;;;;;;;2.55;1.40;;;;;;;;;;6178605;23;20116;-86
2024/01/22 06:26:26;;;;;;;4.32;1.65;;;;;;;;;;6153784;23;20029;-85
2024/01/22 06:28:56;;;;;;;1.63;1.52;;;;;;;;;;6147463;23;20025;-85
2024/01/22 06:31:23;;;;;;;4.40;1.98;;;;;;;;;;6155041;23;20020;-86
2024/01/22 06:33:50;;;;;;;1.70;1.60;;;;;;;;;;6151760;23;20048;-86
2024/01/22 06:36:18;;;;;;;1.50;1.20;;;;;;;;;;6152857;23;20027;-86
2024/01/22 06:38:45;;;;;;;2.35;1.45;;;;;;;;;;6151175;23;20013;-87
2024/01/22 06:41:18;;;;;;;2.00;1.27;;;;;;;;;;6176911;23;20016;-87
2024/01/22 06:43:59;;;;;;;2.35;1.30;;;;;;;;;;6140079;23;20012;-86
2024/01/22 06:46:27;;;;;;;2.30;1.13;;;;;;;;;;6155555;23;20012;-86
2024/01/22 07:35:54;;;;;;;7.00;2.20;;;;;;;;;;5937202;24;20031;-87
2024/01/22 07:53:02;;;;;;;8.50;2.90;;;;;;;;;;5832768;24;20078;-87
2024/01/22 07:55:49;;;;;;;11.75;2.83;;;;;;;;;;5856582;24;20348;-87
2024/01/22 07:58:17;;;;;;;15.60;2.90;;;;;;;;;;5890113;24;20025;-88
2024/01/22 08:00:47;;;;;;;12.52;2.28;;;;;;;;;;5913383;24;20021;-87
2024/01/22 08:03:13;;;;;;;16.23;2.45;;;;;;;;;;5892765;24;20059;-88
2024/01/22 08:05:40;;;;;;;10.98;2.38;;;;;;;;;;5883433;24;20058;-88
2024/01/22 08:08:09;;;;;;;7.25;2.97;;;;;;;;;;5913083;24;20479;-88
2024/01/22 08:10:37;;;;;;;9.10;1.95;;;;;;;;;;5890365;24;20020;-88
2024/01/22 08:13:06;;;;;;;13.07;2.65;;;;;;;;;;5896634;24;20541;-87
2024/01/22 08:15:43;;;;;;;12.60;3.25;;;;;;;;;;5939629;24;20048;-88
2024/01/22 08:18:30;;;;;;;10.98;2.30;;;;;;;;;;5940865;23;20047;-88
2024/01/22 08:20:59;;;;;;;10.20;2.95;;;;;;;;;;5972822;23;20023;-88
2024/01/22 08:23:37;;;;;;;14.65;2.95;;;;;;;;;;6114583;23;20021;-88
2024/01/22 08:26:04;;;;;;;;;;;;;;;;;;6120309;23;20734;-88
2024/01/22 08:28:32;;;;;;;9.23;2.40;;;;;;;;;;6146351;23;20226;-88
2024/01/22 08:31:00;;;;;;;14.55;2.90;;;;;;;;;;6093959;23;20301;-88
2024/01/22 08:33:29;;;;;;;10.30;2.50;;;;;;;;;;6095198;23;20056;-88
2024/01/22 08:35:58;;;;;;;8.98;2.65;;;;;;;;;;6094639;23;20023;-89
2024/01/22 08:38:26;;;;;;;14.20;2.38;;;;;;;;;;6094213;23;20018;-88
2024/01/22 08:40:53;;;;;;;;;;;;;;;;;;6118400;23;20018;-88
2024/01/22 08:43:24;;;;;;;6.38;2.35;;;;;;;;;;6119875;23;19987;-88
2024/01/22 08:45:53;;;;;;;15.57;2.58;;;;;;;;;;6118196;23;20029;-88
2024/01/22 08:48:21;;;;;;;9.98;2.38;;;;;;;;;;6095900;23;20025;-88
2024/01/22 08:50:49;;;;;;;;;;;;;;;;;;6091997;23;20021;-88
2024/01/22 08:53:24;;;;;;;8.88;2.20;;;;;;;;;;6144740;23;19920;-88
2024/01/22 08:55:51;;;;;;;12.98;2.35;;;;;;;;;;6068707;23;20021;-89
2024/01/22 08:58:18;;;;;;;7.22;2.28;;;;;;;;;;6094987;23;20522;-89
2024/01/22 09:00:45;;;;;;;7.95;1.60;;;;;;;;;;6092834;23;20018;-89
2024/01/22 09:03:12;;;;;;;6.78;2.05;;;;;;;;;;6095450;23;20091;-88
2024/01/22 09:05:40;;;;;;;11.18;2.33;;;;;;;;;;6093930;23;20053;-88
2024/01/22 09:08:09;;;;;;;11.45;2.53;;;;;;;;;;6095103;23;20013;-88
2024/01/22 09:10:38;;;;;;;16.08;2.30;;;;;;;;;;6092451;23;20462;-87
2024/01/22 09:13:05;;;;;;;12.50;2.30;;;;;;;;;;6119715;23;20029;-87
2024/01/22 09:15:35;;;;;;;13.95;3.40;;;;;;;;;;6075406;23;20022;-87
2024/01/22 09:18:03;;;;;;;15.43;3.10;;;;;;;;;;6124374;23;20060;-88
2024/01/22 09:20:31;;;;;;;14.60;2.58;;;;;;;;;;6150124;23;20457;-88
2024/01/22 09:23:00;;;;;;;14.27;3.17;;;;;;;;;;6169996;23;20025;-87
2024/01/22 09:25:29;;;;;;;24.27;4.50;;;;;;;;;;6172591;23;20021;-88
2024/01/22 09:27:56;;;;;;;;;;;;;;;;;;6147816;23;20021;-88
2024/01/22 09:30:28;;;;;;;18.30;3.33;;;;;;;;;;6174465;23;19927;-88
2024/01/22 09:32:58;;;;;;;17.20;3.70;;;;;;;;;;6171400;23;20540;-88
2024/01/22 09:35:36;;;;;;;17.73;3.42;;;;;;;;;;6172683;23;20067;-87
2024/01/22 09:38:04;;;;;;;23.77;3.83;;;;;;;;;;6125914;23;20016;-88
2024/01/22 09:40:35;;;;;;;21.10;3.63;;;;;;;;;;6177807;23;20715;-87
2024/01/22 09:43:08;;;;;;;27.63;4.05;;;;;;;;;;6150863;23;20029;-87
2024/01/22 09:45:35;;;;;;;23.83;4.90;;;;;;;;;;6174728;23;20070;-87
2024/01/22 09:48:04;;;;;;;18.65;4.38;;;;;;;;;;6176833;23;20048;-87
2024/01/22 09:50:33;;;;;;;22.83;4.15;;;;;;;;;;6177644;23;20024;-87
2024/01/22 09:53:08;;;;;;;25.75;3.58;;;;;;;;;;6173244;23;20025;-86
2024/01/22 09:55:44;;;;;;;24.92;4.55;;;;;;;;;;6132553;23;20587;-87
2024/01/22 09:58:13;;;;;;;25.92;3.85;;;;;;;;;;6154761;23;20044;-87
2024/01/22 10:00:42;;;;;;;26.55;4.63;;;;;;;;;;6155890;23;20053;-87
2024/01/22 10:03:12;;;;;;;23.48;4.15;;;;;;;;;;6177935;23;20029;-88
2024/01/22 10:05:41;;;;;;;20.35;4.40;;;;;;;;;;6146091;23;20028;-87
2024/01/22 10:08:09;;;;;;;35.22;5.85;;;;;;;;;;6175911;23;20027;-87
2024/01/22 10:10:37;;;;;;;;;;;;;;;;;;6174830;23;20024;-87
2024/01/22 10:13:08;;;;;;;30.38;3.78;;;;;;;;;;6171998;23;20237;-87
2024/01/22 10:15:36;;;;;;;29.88;4.45;;;;;;;;;;6170137;23;20017;-87
2024/01/22 10:18:15;;;;;;;28.48;4.50;;;;;;;;;;6175735;23;20013;-86
2024/01/22 10:20:50;;;;;;;31.65;4.43;;;;;;;;;;6145927;23;20024;-87
2024/01/22 10:23:18;;;;;;;25.67;4.25;;;;;;;;;;6175601;23;20045;-86
2024/01/22 10:25:45;;;;;;;21.88;3.95;;;;;;;;;;6172080;23;20144;-87
2024/01/22 10:28:18;;;;;;;31.60;5.90;;;;;;;;;;6175316;23;20350;-87
2024/01/22 10:30:47;;;;;;;26.85;4.40;;;;;;;;;;6171432;23;20095;-88
2024/01/22 10:33:19;;;;;;;21.17;3.88;;;;;;;;;;6148861;23;20343;-87
2024/01/22 10:35:47;;;;;;;22.33;4.13;;;;;;;;;;6171335;23;20013;-87
2024/01/22 10:38:18;;;;;;;34.17;5.03;;;;;;;;;;6147290;23;20056;-87
2024/01/22 10:40:47;;;;;;;32.97;5.30;;;;;;;;;;6123870;23;20017;-87
2024/01/22 10:43:28;;;;;;;24.48;5.57;;;;;;;;;;6174109;23;20020;-87
2024/01/22 10:45:57;;;;;;;25.02;4.60;;;;;;;;;;6147397;23;20032;-87
2024/01/22 10:48:28;;;;;;;29.20;4.90;;;;;;;;;;6124841;23;20020;-87
2024/01/22 10:50:57;;;;;;;27.77;5.80;;;;;;;;;;6170520;23;20136;-86
2024/01/22 10:53:25;;;;;;;26.48;5.95;;;;;;;;;;6147416;23;20024;-87
2024/01/22 10:56:02;;;;;;;24.17;5.80;;;;;;;;;;6165638;23;20072;-87
2024/01/22 10:58:45;;;;;;;27.50;6.40;;;;;;;;;;6171586;23;20021;-87
2024/01/22 11:01:18;;;;;;;33.80;5.75;;;;;;;;;;6126530;23;20027;-87
2024/01/22 11:03:50;;;;;;;31.13;6.22;;;;;;;;;;6171501;23;20087;-86
2024/01/22 11:06:20;;;;;;;31.02;4.90;;;;;;;;;;6150324;23;20021;-86
2024/01/22 11:08:51;;;;;;;27.67;4.97;;;;;;;;;;6122957;23;20020;-87
2024/01/22 11:11:25;;;;;;;37.47;5.38;;;;;;;;;;6172376;23;20051;-86
2024/01/22 11:14:03;;;;;;;30.40;4.85;;;;;;;;;;6119959;23;20017;-86
2024/01/22 11:16:30;;;;;;;;;;;;;;;;;;6125368;23;20025;-86
2024/01/22 11:19:07;;;;;;;20.95;4.10;;;;;;;;;;6172096;23;19999;-86
2024/01/22 11:21:43;;;;;;;25.02;4.32;;;;;;;;;;6146463;23;20453;-86
2024/01/22 11:24:17;;;;;;;26.40;4.78;;;;;;;;;;6171635;23;20025;-86
2024/01/22 11:26:55;;;;;;;21.85;3.75;;;;;;;;;;6146030;23;20552;-86
2024/01/22 11:29:29;;;;;;;22.42;4.65;;;;;;;;;;6149251;23;20027;-86
2024/01/22 11:31:58;;;;;;;26.00;5.50;;;;;;;;;;6122160;23;20036;-86
2024/01/22 11:34:25;;;;;;;;;;;;;;;;;;6172858;23;20023;-86
2024/01/22 11:36:59;;;;;;;22.08;5.07;;;;;;;;;;6167207;23;20526;-87
2024/01/22 11:39:43;;;;;;;21.05;3.53;;;;;;;;;;6148544;23;20021;-86
2024/01/22 11:42:25;;;;;;;26.30;4.40;;;;;;;;;;6173963;23;20024;-86
2024/01/22 11:45:13;;;;;;;20.88;4.45;;;;;;;;;;6173031;23;20086;-86
2024/01/22 11:47:53;;;;;;;28.67;4.10;;;;;;;;;;6126240;23;20539;-86
2024/01/22 11:50:22;;;;;;;26.55;4.18;;;;;;;;;;6171400;23;20068;-86
2024/01/22 11:53:03;;;;;;;30.00;4.70;;;;;;;;;;6169826;23;20071;-86
2024/01/22 11:55:31;;;;;;;24.17;4.15;;;;;;;;;;6173324;23;20409;-86
2024/01/22 11:57:58;;;;;;;23.98;4.25;;;;;;;;;;6170824;23;20055;-86
2024/01/22 12:00:27;;;;;;;19.70;4.13;;;;;;;;;;6170798;23;20446;-87
2024/01/22 12:02:58;;;;;;;19.25;3.92;;;;;;;;;;6144813;23;20730;-86
2024/01/22 12:05:27;;;;;;;21.80;4.90;;;;;;;;;;6172959;23;20496;-87
2024/01/22 12:07:56;;;;;;;19.30;4.95;;;;;;;;;;6172828;23;20724;-86
2024/01/22 12:10:27;;;;;;;24.58;3.80;;;;;;;;;;6175066;23;20093;-86
2024/01/22 12:13:00;;;;;;;22.50;4.63;;;;;;;;;;6169691;23;20322;-86
2024/01/22 12:15:28;;;;;;;16.50;3.97;;;;;;;;;;6173487;23;20017;-87
2024/01/22 12:17:54;;;;;;;22.60;3.72;;;;;;;;;;6169646;23;20937;-86
2024/01/22 12:20:28;;;;;;;17.38;3.05;;;;;;;;;;6148289;23;20013;-86
2024/01/22 12:23:04;;;;;;;13.68;3.20;;;;;;;;;;6171503;23;20914;-87
2024/01/22 12:25:41;;;;;;;16.42;4.20;;;;;;;;;;6123110;23;20044;-86
2024/01/22 12:28:10;;;;;;;24.83;4.20;;;;;;;;;;6124250;23;20021;-86
2024/01/22 12:30:39;;;;;;;22.00;3.70;;;;;;;;;;6120910;23;20021;-87
2024/01/22 12:33:07;;;;;;;13.15;2.25;;;;;;;;;;6120982;23;20083;-86
2024/01/22 12:35:34;;;;;;;15.38;2.95;;;;;;;;;;6122438;23;20593;-86
2024/01/22 12:38:01;;;;;;;;;;;;;;;;;;6142112;23;20028;-86
2024/01/22 12:40:28;;;;;;;11.55;2.78;;;;;;;;;;6168560;23;20384;-87
2024/01/22 12:42:58;;;;;;;13.25;2.60;;;;;;;;;;6118702;23;20035;-86
2024/01/22 12:45:25;;;;;;;14.35;3.13;;;;;;;;;;6146712;23;20020;-86
2024/01/22 12:47:56;;;;;;;17.27;2.78;;;;;;;;;;6142545;23;20024;-86
2024/01/22 12:50:25;;;;;;;15.38;2.72;;;;;;;;;;6171121;23;20021;-86
2024/01/22 12:52:57;;;;;;;11.55;2.80;;;;;;;;;;6120665;23;20433;-86
2024/01/22 12:55:25;;;;;;;15.05;2.45;;;;;;;;;;6119010;23;20436;-87
2024/01/22 12:57:54;;;;;;;14.65;2.58;;;;;;;;;;6142614;23;20350;-86
2024/01/22 13:00:23;;;;;;;13.57;2.47;;;;;;;;;;6122452;23;20035;-86
2024/01/22 13:02:51;;;;;;;13.88;3.47;;;;;;;;;;6173860;23;20029;-86
2024/01/22 13:05:20;;;;;;;12.55;2.60;;;;;;;;;;6174276;23;20071;-86
2024/01/22 13:07:50;;;;;;;12.48;2.53;;;;;;;;;;6144246;23;20025;-86
2024/01/22 13:10:22;;;;;;;19.58;3.38;;;;;;;;;;6172774;23;20035;-86
2024/01/22 13:12:50;;;;;;;15.15;2.90;;;;;;;;;;6167327;23;20021;-86
2024/01/22 13:15:19;;;;;;;24.65;3.33;;;;;;;;;;6149055;23;20043;-86
2024/01/22 13:17:50;;;;;;;16.23;3.13;;;;;;;;;;6169827;23;20430;-86
2024/01/22 13:20:18;;;;;;;15.80;3.22;;;;;;;;;;6175396;23;20028;-86
2024/01/22 13:22:44;;;;;;;;;;;;;;;;;;6172346;23;20037;-85
2024/01/22 13:25:12;;;;;;;15.25;2.58;;;;;;;;;;6173074;23;19965;-85
2024/01/22 13:27:40;;;;;;;15.80;2.70;;;;;;;;;;6172588;23;20016;-86
2024/01/22 13:30:08;;;;;;;12.15;2.70;;;;;;;;;;6121815;23;20415;-85
2024/01/22 13:32:34;;;;;;;14.43;3.22;;;;;;;;;;6145621;23;20131;-87
2024/01/22 13:35:01;;;;;;;18.30;2.83;;;;;;;;;;6119883;23;20426;-86
2024/01/22 13:37:31;;;;;;;13.98;3.05;;;;;;;;;;6144092;23;20021;-86
2024/01/22 13:39:59;;;;;;;17.17;3.13;;;;;;;;;;6144619;23;20111;-85
2024/01/22 13:42:25;;;;;;;;;;;;;;;;;;6125091;23;20039;-86
2024/01/22 13:44:54;;;;;;;16.98;3.03;;;;;;;;;;6169625;23;19983;-85
2024/01/22 13:47:21;;;;;;;20.75;3.55;;;;;;;;;;6173673;23;20044;-86
2024/01/22 13:49:49;;;;;;;23.10;2.85;;;;;;;;;;6169570;23;20020;-86
2024/01/22 13:52:18;;;;;;;14.30;3.10;;;;;;;;;;6146834;23;20350;-86
2024/01/22 13:54:46;;;;;;;15.02;3.53;;;;;;;;;;6145397;23;20075;-85
2024/01/22 13:57:15;;;;;;;14.68;2.97;;;;;;;;;;6175534;23;20144;-86
2024/01/22 13:59:44;;;;;;;16.25;2.85;;;;;;;;;;6166367;23;20293;-86
2024/01/22 14:02:12;;;;;;;10.32;2.47;;;;;;;;;;6172294;23;20028;-86
2024/01/22 14:04:43;;;;;;;16.77;3.08;;;;;;;;;;6172092;23;20017;-86
2024/01/22 14:07:12;;;;;;;14.10;2.80;;;;;;;;;;6173174;23;20100;-85
2024/01/22 14:09:41;;;;;;;13.10;3.13;;;;;;;;;;6145190;23;20021;-85
2024/01/22 14:12:10;;;;;;;24.85;3.75;;;;;;;;;;6175136;23;20056;-85
2024/01/22 14:14:37;;;;;;;14.18;3.63;;;;;;;;;;6171762;23;20021;-86
2024/01/22 14:17:05;;;;;;;15.43;2.63;;;;;;;;;;6170682;23;20100;-86
2024/01/22 14:19:32;;;;;;;14.60;3.10;;;;;;;;;;6166348;23;20718;-86
2024/01/22 14:22:00;;;;;;;22.60;3.75;;;;;;;;;;6168724;23;20057;-86
2024/01/22 14:24:27;;;;;;;17.53;4.27;;;;;;;;;;6117841;23;20030;-86
2024/01/22 14:26:57;;;;;;;17.98;3.22;;;;;;;;;;6169469;23;20020;-86
2024/01/22 14:29:24;;;;;;;18.33;3.00;;;;;;;;;;6170150;23;20404;-86
2024/01/22 14:31:53;;;;;;;18.67;3.30;;;;;;;;;;6144222;23;20182;-86
2024/01/22 14:34:22;;;;;;;18.00;3.13;;;;;;;;;;6116868;23;20021;-86
2024/01/22 14:36:51;;;;;;;15.75;3.78;;;;;;;;;;6118923;23;20017;-86
2024/01/22 14:39:20;;;;;;;13.57;2.58;;;;;;;;;;6144255;23;20427;-86
2024/01/22 14:41:48;;;;;;;17.60;2.97;;;;;;;;;;6143191;23;20032;-86
2024/01/22 14:44:22;;;;;;;10.52;2.42;;;;;;;;;;6121842;23;20017;-86
2024/01/22 14:46:50;;;;;;;20.77;3.72;;;;;;;;;;6142551;23;20441;-86
2024/01/22 14:49:20;;;;;;;22.37;4.03;;;;;;;;;;6145184;23;20076;-86
2024/01/22 14:51:54;;;;;;;19.65;3.67;;;;;;;;;;6168199;23;20297;-86
2024/01/22 14:54:22;;;;;;;17.33;2.83;;;;;;;;;;6117354;23;20017;-86
2024/01/22 14:56:54;;;;;;;25.05;3.95;;;;;;;;;;6165696;23;20445;-86
2024/01/22 14:59:32;;;;;;;16.73;4.32;;;;;;;;;;6143600;23;20064;-86
2024/01/22 15:02:01;;;;;;;15.38;3.30;;;;;;;;;;6118961;23;20025;-86
2024/01/22 15:04:30;;;;;;;21.02;3.45;;;;;;;;;;6142502;23;20016;-86
2024/01/22 15:06:58;;;;;;;20.25;3.38;;;;;;;;;;6117936;23;20021;-85
2024/01/22 15:09:25;;;;;;;;;;;;;;;;;;6144971;23;20032;-85
2024/01/22 15:11:55;;;;;;;20.33;3.55;;;;;;;;;;6164708;23;19920;-86
2024/01/22 15:14:28;;;;;;;20.52;4.43;;;;;;;;;;6169730;23;20013;-86
2024/01/22 15:17:04;;;;;;;19.02;4.22;;;;;;;;;;6169459;23;20453;-86
2024/01/22 15:19:35;;;;;;;20.25;4.13;;;;;;;;;;6167554;23;20075;-86
2024/01/22 15:22:03;;;;;;;19.40;3.65;;;;;;;;;;6173096;23;20032;-87
2024/01/22 15:24:30;;;;;;;14.30;3.70;;;;;;;;;;6121008;23;20059;-86
2024/01/22 15:26:57;;;;;;;19.40;3.78;;;;;;;;;;6142874;23;20503;-86
2024/01/22 15:29:25;;;;;;;17.63;3.50;;;;;;;;;;6146958;23;20342;-86
2024/01/22 15:31:58;;;;;;;13.10;3.83;;;;;;;;;;6120578;23;20020;-86
2024/01/22 15:34:30;;;;;;;22.17;3.40;;;;;;;;;;6142974;23;20055;-86
2024/01/22 15:36:58;;;;;;;20.50;2.92;;;;;;;;;;6140386;23;20075;-86
2024/01/22 15:39:26;;;;;;;23.55;4.15;;;;;;;;;;6120653;23;20108;-86
2024/01/22 15:41:55;;;;;;;;;;;;;;;;;;6142381;23;20024;-85
2024/01/22 15:44:27;;;;;;;22.52;3.88;;;;;;;;;;6170453;23;20244;-86
2024/01/22 22:43:20;;;;;;;6.65;1.50;;;;;;;;;;6188520;23;20046;-86
2024/01/22 22:45:59;;;;;;;7.32;1.60;;;;;;;;;;6152525;23;20409;-86
2024/01/22 22:48:29;;;;;;;12.07;1.90;;;;;;;;;;6130089;23;20020;-85
2024/01/22 22:50:57;;;;;;;11.80;1.55;;;;;;;;;;6151729;23;20028;-86